createdAt,value
2023-01-02T00:00:02.257Z,1008.705
2023-01-02T00:07:02.095Z,1008.695
2023-01-02T00:14:01.335Z,1008.695
2023-01-02T00:21:02.315Z,1008.643
2023-01-02T00:28:01.357Z,1008.643
2023-01-02T00:35:02.163Z,1008.685
2023-01-02T00:42:02.025Z,1008.658
2023-01-02T00:49:02.053Z,1008.658
2023-01-02T00:56:01.672Z,1008.627
2023-01-02T01:00:02.313Z,1008.627
2023-01-02T01:07:01.641Z,1008.627
2023-01-02T01:14:02.186Z,1008.533
2023-01-02T01:21:01.485Z,1008.496
2023-01-02T01:28:01.622Z,1008.496
2023-01-02T01:35:01.863Z,1008.384
2023-01-02T01:42:02.047Z,1008.384
2023-01-02T01:49:01.474Z,1008.457
2023-01-02T01:56:01.988Z,1008.457
2023-01-02T02:00:01.562Z,1008.393
2023-01-02T02:07:01.769Z,1008.393
2023-01-02T02:14:01.962Z,1008.559
2023-01-02T02:21:01.503Z,1008.559
2023-01-02T02:28:01.807Z,1008.43
2023-01-02T02:35:02.073Z,1008.43
2023-01-02T02:42:01.452Z,1008.531
2023-01-02T02:49:02.254Z,1008.531
2023-01-02T02:56:02.272Z,1008.25
2023-01-02T03:00:01.866Z,1008.25
2023-01-02T03:07:01.665Z,1008.208
2023-01-02T03:14:02.034Z,1008.208
2023-01-02T03:21:01.593Z,1008.487
2023-01-02T03:28:01.601Z,1008.487
2023-01-02T03:35:01.486Z,1008.548
2023-01-02T03:42:01.996Z,1008.471
2023-01-02T03:49:01.808Z,1008.471
2023-01-02T03:56:02.065Z,1008.664
2023-01-02T04:00:01.623Z,1008.664
2023-01-02T04:07:02.137Z,1008.664
2023-01-02T04:14:02.133Z,1008.642
2023-01-02T04:21:01.403Z,1008.635
2023-01-02T04:28:02.317Z,1008.635
2023-01-02T04:35:01.762Z,1008.611
2023-01-02T04:42:02.026Z,1008.611
2023-01-02T04:49:01.934Z,1008.89
2023-01-02T04:56:01.461Z,1008.89
2023-01-02T05:00:02.062Z,1008.899
2023-01-02T05:07:01.668Z,1008.899
2023-01-02T05:14:07.228Z,1008.966
2023-01-02T05:21:01.890Z,1008.966
2023-01-02T05:28:01.529Z,1009.177
2023-01-02T05:35:01.722Z,1009.177
2023-01-02T05:42:01.729Z,1009.19
2023-01-02T05:49:01.348Z,1009.19
2023-01-02T05:56:01.578Z,1009.316
2023-01-02T06:00:02.117Z,1009.316
2023-01-02T06:07:01.814Z,1009.43
2023-01-02T06:14:01.858Z,1009.43
2023-01-02T06:21:02.139Z,1009.42
2023-01-02T06:28:02.285Z,1009.42
2023-01-02T06:35:02.607Z,1009.433
2023-01-02T06:42:01.958Z,1009.614
2023-01-02T06:49:02.203Z,1009.614
2023-01-02T06:56:02.269Z,1009.813
2023-01-02T07:00:01.928Z,1009.813
2023-01-02T07:07:01.397Z,1009.813
2023-01-02T07:14:01.818Z,1009.788
2023-01-02T07:21:01.346Z,1010.046
2023-01-02T07:28:01.836Z,1010.046
2023-01-02T07:35:02.177Z,1010.113
2023-01-02T07:42:02.096Z,1010.113
2023-01-02T07:49:01.443Z,1010.32
2023-01-02T07:56:01.863Z,1010.32
2023-01-02T08:00:02.495Z,1010.471
2023-01-02T08:07:02.115Z,1010.471
2023-01-02T08:14:01.918Z,1010.79
2023-01-02T08:21:01.387Z,1010.79
2023-01-02T08:28:01.715Z,1011.107
2023-01-02T08:35:01.773Z,1011.107
2023-01-02T08:42:01.629Z,1011.28
2023-01-02T08:49:01.534Z,1011.28
2023-01-02T08:56:01.581Z,1011.624
2023-01-02T09:00:02.158Z,1011.624
2023-01-02T09:07:02.229Z,1012.228
2023-01-02T09:14:01.344Z,1012.228
2023-01-02T09:21:01.807Z,1012.432
2023-01-02T09:28:01.333Z,1012.432
2023-01-02T09:35:02.293Z,1012.663
2023-01-02T09:42:01.404Z,1012.87
2023-01-02T09:49:01.873Z,1012.87
2023-01-02T09:56:01.493Z,1013.066
2023-01-02T10:00:02.196Z,1013.066
2023-01-02T10:07:01.736Z,1013.066
2023-01-02T10:14:18.885Z,1013.38
2023-01-02T10:21:02.144Z,1013.593
2023-01-02T10:28:01.957Z,1013.593
2023-01-02T10:35:02.095Z,1013.476
2023-01-02T10:42:01.554Z,1013.476
2023-01-02T10:49:01.615Z,1013.587
2023-01-02T10:56:01.943Z,1013.587
2023-01-02T11:00:02.585Z,1013.678
2023-01-02T11:07:02.104Z,1013.678
2023-01-02T11:14:02.155Z,1013.628
2023-01-02T11:21:01.789Z,1013.628
2023-01-02T11:28:01.758Z,1013.641
2023-01-02T11:35:02.511Z,1013.641
2023-01-02T11:42:01.455Z,1013.531
2023-01-02T11:49:01.488Z,1013.531
2023-01-02T11:56:02.298Z,1013.788
2023-01-02T12:00:01.875Z,1013.788
2023-01-02T12:07:01.573Z,1014.009
2023-01-02T12:14:02.043Z,1014.009
2023-01-02T12:21:02.230Z,1014.01
2023-01-02T12:28:02.174Z,1014.01
2023-01-02T12:35:01.850Z,1014.248
2023-01-02T12:42:02.656Z,1014.405
2023-01-02T12:49:01.714Z,1014.405
2023-01-02T12:56:01.698Z,1014.377
2023-01-02T13:00:02.263Z,1014.377
2023-01-02T13:07:02.244Z,1014.377
2023-01-02T13:14:02.237Z,1014.525
2023-01-02T13:21:02.206Z,1014.588
2023-01-02T13:28:01.867Z,1014.588
2023-01-02T13:35:02.426Z,1014.762
2023-01-02T13:42:07.230Z,1014.762
2023-01-02T13:49:01.349Z,1014.655
2023-01-02T13:56:01.895Z,1014.655
2023-01-02T14:00:02.433Z,1014.755
2023-01-02T14:07:01.307Z,1014.755
2023-01-02T14:14:01.997Z,1015.086
2023-01-02T14:21:01.852Z,1015.086
2023-01-02T14:28:01.303Z,1015.223
2023-01-02T14:35:02.178Z,1015.223
2023-01-02T14:42:01.502Z,1015.36
2023-01-02T14:49:01.668Z,1015.36
2023-01-02T14:56:02.065Z,1015.63
2023-01-02T15:00:01.646Z,1015.63
2023-01-02T15:07:07.695Z,1015.491
2023-01-02T15:14:04.767Z,1015.491
2023-01-02T15:21:01.969Z,1015.708
2023-01-02T15:28:02.003Z,1015.708
2023-01-02T15:35:01.648Z,1015.985
2023-01-02T15:42:05.298Z,1016.206
2023-01-02T15:49:01.720Z,1016.206
2023-01-02T15:56:02.314Z,1016.565
2023-01-02T16:00:01.928Z,1016.565
2023-01-02T16:07:02.219Z,1016.565
2023-01-02T16:14:01.391Z,1016.576
2023-01-02T16:21:01.756Z,1016.907
2023-01-02T16:28:02.115Z,1016.907
2023-01-02T16:35:02.509Z,1017.085
2023-01-02T16:42:01.892Z,1017.085
2023-01-02T16:49:05.461Z,1017.32
2023-01-02T16:56:01.458Z,1017.32
2023-01-02T17:00:02.031Z,1017.781
2023-01-02T17:07:01.372Z,1017.781
2023-01-02T17:14:01.458Z,1017.804
2023-01-02T17:21:01.717Z,1017.804
2023-01-02T17:28:02.068Z,1017.878
2023-01-02T17:35:02.226Z,1017.878
2023-01-02T17:42:01.942Z,1018.095
2023-01-02T17:49:02.263Z,1018.095
2023-01-02T17:56:21.937Z,1018.357
2023-01-02T18:00:02.235Z,1018.357
2023-01-02T18:07:01.529Z,1018.562
2023-01-02T18:14:02.021Z,1018.562
2023-01-02T18:21:02.178Z,1018.848
2023-01-02T18:28:02.111Z,1018.848
2023-01-02T18:35:16.207Z,1019.152
2023-01-02T18:42:02.135Z,1019.053
2023-01-02T18:49:01.692Z,1019.053
2023-01-02T18:56:01.452Z,1019.462
2023-01-02T19:00:02.057Z,1019.462
2023-01-02T19:07:01.373Z,1019.462
2023-01-02T19:14:01.917Z,1019.621
2023-01-02T19:21:01.310Z,1019.775
2023-01-02T19:28:01.358Z,1019.775
2023-01-02T19:35:02.547Z,1020.059
2023-01-02T19:42:02.201Z,1020.059
2023-01-02T19:49:01.656Z,1020.347
2023-01-02T19:56:01.954Z,1020.347
2023-01-02T20:00:01.510Z,1020.381
2023-01-02T20:07:01.390Z,1020.381
2023-01-02T20:14:02.207Z,1020.593
2023-01-02T20:21:01.380Z,1020.593
2023-01-02T20:28:02.074Z,1020.593
2023-01-02T20:35:02.497Z,1020.593
2023-01-02T20:42:01.808Z,1020.832
2023-01-02T20:49:01.676Z,1020.832
2023-01-02T20:56:02.343Z,1021.004
2023-01-02T21:00:02.138Z,1021.004
2023-01-02T21:07:01.813Z,1021.288
2023-01-02T21:14:01.701Z,1021.288
2023-01-02T21:21:02.198Z,1021.309
2023-01-02T21:28:01.932Z,1021.309
2023-01-02T21:35:01.760Z,1021.521
2023-01-02T21:42:02.307Z,1021.589
2023-01-02T21:49:01.619Z,1021.589
2023-01-02T21:56:01.460Z,1021.715
2023-01-02T22:00:02.155Z,1021.715
2023-01-02T22:07:32.009Z,1021.715
2023-01-02T22:14:01.934Z,1021.824
2023-01-02T22:21:02.254Z,1021.966
2023-01-02T22:28:01.641Z,1021.966
2023-01-02T22:35:01.592Z,1022.012
2023-01-02T22:42:02.160Z,1022.012
2023-01-02T22:49:01.458Z,1022.282
2023-01-02T22:56:01.711Z,1022.282
2023-01-02T23:00:02.420Z,1022.482
2023-01-02T23:07:24.133Z,1022.482
2023-01-02T23:14:01.756Z,1022.241
2023-01-02T23:21:02.167Z,1022.241
2023-01-02T23:28:02.015Z,1022.229
2023-01-02T23:35:02.132Z,1022.229
2023-01-02T23:42:01.811Z,1022.469
2023-01-02T23:49:01.883Z,1022.469
2023-01-02T23:56:01.868Z,1022.846
